LEVX/VGO METAR and TAF weather

Enter ICAO airport designator
Station Type Date Time Source
LEVX METAR 2021/03/06 04:00 UTC NOAA

LEVX 060400Z 20005KT 160V240 CAVOK 08/06 Q1018 NOSIG


Station Type Date Time Source
LEVX Decoded METAR 2021/03/06 04:00 UTC NOAA

Vigo / Peinador, Spain (LEVX) 42-13N 008-38W 255M
Mar 05, 2021 - 11:00 PM EST / 2021.03.06 0400 UTC
Wind: from the SSW (200 degrees) at 6 MPH (5 KT) (direction variable):0
Visibility: greater than 7 mile(s):0
Temperature: 46 F (8 C)
Dew Point: 42 F (6 C)
Relative Humidity: 87%
Pressure (altimeter): 30.06 in. Hg (1018 hPa)
ob: LEVX 060400Z 20005KT 160V240 CAVOK 08/06 Q1018 NOSIG
cycle: 4

Station Type Date Time Source
LEVX TAF 2021/03/05 19:08 UTC NOAA

TAF
AMD LEVX 051959Z 0519/0618 VRB05KT CAVOK TX17/0615Z TN09/0606Z PROB40
TEMPO 0519/0521 02010KT

Example: see airport list